createdAt,value
2023-04-16T00:00:42.764Z,96.87
2023-04-16T00:01:42.942Z,97.02
2023-04-16T00:02:42.903Z,96.81
2023-04-16T00:03:42.929Z,97.17
2023-04-16T00:04:42.821Z,97.48
2023-04-16T00:05:42.765Z,97.42
2023-04-16T00:06:42.855Z,97.28
2023-04-16T00:07:42.765Z,97.28
2023-04-16T00:08:42.756Z,97.17
2023-04-16T00:09:42.746Z,97.17
2023-04-16T00:10:42.752Z,97.48
2023-04-16T00:11:42.741Z,97.94
2023-04-16T00:12:42.706Z,97.48
2023-04-16T00:13:42.836Z,97.79
2023-04-16T00:14:42.724Z,97.58
2023-04-16T00:15:42.857Z,97.38
2023-04-16T00:16:42.759Z,97.17
2023-04-16T00:17:42.922Z,97.63
2023-04-16T00:18:42.726Z,97.48
2023-04-16T00:19:42.800Z,97.17
2023-04-16T00:20:42.666Z,97.07
2023-04-16T00:21:42.678Z,96.97
2023-04-16T00:22:42.707Z,96.77
2023-04-16T00:23:42.693Z,97.12
2023-04-16T00:24:42.716Z,96.97
2023-04-16T00:25:42.692Z,97.02
2023-04-16T00:26:42.701Z,96.40
2023-04-16T00:27:42.665Z,96.56
2023-04-16T00:28:42.677Z,96.50
2023-04-16T00:29:42.744Z,96.70
2023-04-16T00:30:42.700Z,96.97
2023-04-16T00:31:42.652Z,96.25
2023-04-16T00:32:42.736Z,96.25
2023-04-16T00:33:42.656Z,96.15
2023-04-16T00:34:42.626Z,96.15
2023-04-16T00:35:42.650Z,96.45
2023-04-16T00:36:42.673Z,96.66
2023-04-16T00:37:42.645Z,96.04
2023-04-16T00:38:42.721Z,96.77
2023-04-16T00:39:42.650Z,96.87
2023-04-16T00:40:42.572Z,96.87
2023-04-16T00:41:42.640Z,96.60
2023-04-16T00:42:42.570Z,96.35
2023-04-16T00:43:42.644Z,96.91
2023-04-16T00:44:42.551Z,96.91
2023-04-16T00:45:42.554Z,96.30
2023-04-16T00:46:42.772Z,96.15
2023-04-16T00:47:42.585Z,96.25
2023-04-16T00:48:42.776Z,95.43
2023-04-16T00:49:42.536Z,95.84
2023-04-16T00:50:42.672Z,95.02
2023-04-16T00:51:42.523Z,95.53
2023-04-16T00:52:42.574Z,95.32
2023-04-16T00:53:42.522Z,95.84
2023-04-16T00:54:42.520Z,95.43
2023-04-16T00:55:43.619Z,95.27
2023-04-16T00:56:42.508Z,95.23
2023-04-16T00:57:42.501Z,95.32
2023-04-16T00:58:42.469Z,95.84
2023-04-16T00:59:42.545Z,96.30
2023-04-16T01:00:42.670Z,95.84
2023-04-16T01:01:42.601Z,95.12
2023-04-16T01:02:42.715Z,95.32
2023-04-16T01:03:42.685Z,95.27
2023-04-16T01:04:42.467Z,95.32
2023-04-16T01:05:42.541Z,95.53
2023-04-16T01:06:42.591Z,95.53
2023-04-16T01:07:42.513Z,95.64
2023-04-16T01:08:42.448Z,95.17
2023-04-16T01:09:42.467Z,95.78
2023-04-16T01:10:42.437Z,95.43
2023-04-16T01:11:43.513Z,95.53
2023-04-16T01:12:42.455Z,95.23
2023-04-16T01:13:42.434Z,95.32
2023-04-16T01:14:42.556Z,95.64
2023-04-16T01:15:42.476Z,95.53
2023-04-16T01:16:42.474Z,95.12
2023-04-16T01:17:42.438Z,95.06
2023-04-16T01:18:42.416Z,95.37
2023-04-16T01:19:42.476Z,94.71
2023-04-16T01:20:42.418Z,95.06
2023-04-16T01:21:42.447Z,95.43
2023-04-16T01:22:42.383Z,95.23
2023-04-16T01:23:42.387Z,94.85
2023-04-16T01:24:42.400Z,94.85
2023-04-16T01:25:42.369Z,95.17
2023-04-16T01:26:42.816Z,94.85
2023-04-16T01:27:42.400Z,95.37
2023-04-16T01:28:42.359Z,94.85
2023-04-16T01:29:42.390Z,95.06
2023-04-16T01:30:42.332Z,95.06
2023-04-16T01:31:42.583Z,95.47
2023-04-16T01:32:42.387Z,95.06
2023-04-16T01:33:42.328Z,95.06
2023-04-16T01:34:42.320Z,94.76
2023-04-16T01:35:42.397Z,95.57
2023-04-16T01:36:42.327Z,95.57
2023-04-16T01:37:42.352Z,95.47
2023-04-16T01:38:42.322Z,94.96
2023-04-16T01:39:42.329Z,94.96
2023-04-16T01:40:42.293Z,94.45
2023-04-16T01:41:42.319Z,94.55
2023-04-16T01:42:42.342Z,94.55
2023-04-16T01:43:42.327Z,94.24
2023-04-16T01:44:42.279Z,93.83
2023-04-16T01:45:42.305Z,93.93
2023-04-16T01:46:42.329Z,93.93
2023-04-16T01:47:42.369Z,93.59
2023-04-16T01:48:42.283Z,93.48
2023-04-16T01:49:42.251Z,93.42
2023-04-16T01:50:43.279Z,93.42
2023-04-16T01:51:42.242Z,93.07
2023-04-16T01:52:42.257Z,93.73
2023-04-16T01:53:42.236Z,93.59
2023-04-16T01:54:42.238Z,93.68
2023-04-16T01:55:42.280Z,93.68
2023-04-16T01:56:42.253Z,93.79
2023-04-16T01:57:42.234Z,93.59
2023-04-16T01:58:42.252Z,93.48
2023-04-16T01:59:42.265Z,93.38
2023-04-16T02:00:43.232Z,93.27
2023-04-16T02:01:42.221Z,93.21
2023-04-16T02:02:42.307Z,93.07
2023-04-16T02:03:42.507Z,93.17
2023-04-16T02:04:42.226Z,93.68
2023-04-16T02:05:42.176Z,93.59
2023-04-16T02:06:42.180Z,93.99
2023-04-16T02:07:42.170Z,94.34
2023-04-16T02:08:42.211Z,93.89
2023-04-16T02:09:42.210Z,93.48
2023-04-16T02:10:42.171Z,93.42
2023-04-16T02:11:42.220Z,93.79
2023-04-16T02:12:42.149Z,93.79
2023-04-16T02:13:42.133Z,93.89
2023-04-16T02:14:42.151Z,94.04
2023-04-16T02:15:42.172Z,93.89
2023-04-16T02:16:42.132Z,93.89
2023-04-16T02:17:42.130Z,94.40
2023-04-16T02:18:43.135Z,94.30
2023-04-16T02:19:42.124Z,94.34
2023-04-16T02:20:42.135Z,94.20
2023-04-16T02:21:42.108Z,94.81
2023-04-16T02:22:42.106Z,94.40
2023-04-16T02:23:42.095Z,93.68
2023-04-16T02:24:42.131Z,94.81
2023-04-16T02:25:42.087Z,94.96
2023-04-16T02:26:42.106Z,93.89
2023-04-16T02:27:42.087Z,94.40
2023-04-16T02:28:42.118Z,94.20
2023-04-16T02:29:42.063Z,94.40
2023-04-16T02:30:42.089Z,94.34
2023-04-16T02:31:42.157Z,94.30
2023-04-16T02:32:42.149Z,94.85
2023-04-16T02:33:42.084Z,95.06
2023-04-16T02:34:42.046Z,94.96
2023-04-16T02:35:42.027Z,94.96
2023-04-16T02:36:42.035Z,94.85
2023-04-16T02:37:42.107Z,94.55
2023-04-16T02:38:42.034Z,94.45
2023-04-16T02:39:42.021Z,94.55
2023-04-16T02:40:42.003Z,94.30
2023-04-16T02:41:42.058Z,94.45
2023-04-16T02:42:42.037Z,94.10
2023-04-16T02:43:42.016Z,94.04
2023-04-16T02:44:42.026Z,94.20
2023-04-16T02:45:42.041Z,93.79
2023-04-16T02:46:41.982Z,93.79
2023-04-16T02:47:42.022Z,93.79
2023-04-16T02:48:42.027Z,93.79
2023-04-16T02:49:42.013Z,93.68
2023-04-16T02:50:41.958Z,93.68
2023-04-16T02:51:41.971Z,93.59
2023-04-16T02:52:41.971Z,93.48
2023-04-16T02:53:42.078Z,93.68
2023-04-16T02:54:41.979Z,93.59
2023-04-16T02:55:41.941Z,93.48
2023-04-16T02:56:41.946Z,93.38
2023-04-16T02:57:41.960Z,93.27
2023-04-16T02:58:41.984Z,93.07
2023-04-16T02:59:41.947Z,93.27
2023-04-16T03:00:41.948Z,93.17
2023-04-16T03:01:41.987Z,93.17
2023-04-16T03:02:41.977Z,92.76
2023-04-16T03:03:41.936Z,92.86
2023-04-16T03:04:41.966Z,92.66
2023-04-16T03:05:41.924Z,92.86
2023-04-16T03:06:41.910Z,92.86
2023-04-16T03:07:41.894Z,92.55
2023-04-16T03:08:41.904Z,92.97
2023-04-16T03:09:41.941Z,92.97
2023-04-16T03:10:41.875Z,93.17
2023-04-16T03:11:41.911Z,92.86
2023-04-16T03:12:41.856Z,93.07
2023-04-16T03:13:41.887Z,93.17
2023-04-16T03:14:41.902Z,92.97
2023-04-16T03:15:41.921Z,93.07
2023-04-16T03:16:41.924Z,93.17
2023-04-16T03:17:41.882Z,93.59
2023-04-16T03:18:41.847Z,93.59
2023-04-16T03:19:41.882Z,93.38
2023-04-16T03:20:41.908Z,93.99
2023-04-16T03:21:41.861Z,94.40
2023-04-16T03:22:41.826Z,94.51
2023-04-16T03:23:41.909Z,94.30
2023-04-16T03:24:41.806Z,95.23
2023-04-16T03:25:41.841Z,95.53
2023-04-16T03:26:41.821Z,94.71
2023-04-16T03:27:41.857Z,95.68
2023-04-16T03:28:41.860Z,95.27
2023-04-16T03:29:41.797Z,95.98
2023-04-16T03:30:41.790Z,96.40
2023-04-16T03:31:41.823Z,96.81
2023-04-16T03:32:41.897Z,97.02
2023-04-16T03:33:41.790Z,96.77
2023-04-16T03:34:41.846Z,96.70
2023-04-16T03:35:41.791Z,96.40
2023-04-16T03:36:41.780Z,96.30
2023-04-16T03:37:41.777Z,96.81
2023-04-16T03:38:41.770Z,96.81
2023-04-16T03:39:41.769Z,96.81
2023-04-16T03:40:41.757Z,96.70
2023-04-16T03:41:42.780Z,96.70
2023-04-16T03:42:41.754Z,96.77
2023-04-16T03:43:41.836Z,96.81
2023-04-16T03:44:41.760Z,96.91
2023-04-16T03:45:41.750Z,96.81
2023-04-16T03:46:41.787Z,96.60
2023-04-16T03:47:41.742Z,96.70
2023-04-16T03:48:41.745Z,96.66
2023-04-16T03:49:41.704Z,96.81
2023-04-16T03:50:41.712Z,96.66
2023-04-16T03:51:41.716Z,96.50
2023-04-16T03:52:41.702Z,96.60
2023-04-16T03:53:41.732Z,96.50
2023-04-16T03:54:41.712Z,96.66
2023-04-16T03:55:41.738Z,96.60
2023-04-16T03:56:41.707Z,97.02
2023-04-16T03:57:41.682Z,96.60
2023-04-16T03:58:41.734Z,96.35
2023-04-16T03:59:41.714Z,96.91
2023-04-16T04:00:41.681Z,96.81
2023-04-16T04:01:41.699Z,96.91
2023-04-16T04:02:41.818Z,97.02
2023-04-16T04:03:41.859Z,97.42
2023-04-16T04:04:41.800Z,97.32
2023-04-16T04:05:41.648Z,97.32
2023-04-16T04:06:41.628Z,97.02
2023-04-16T04:07:41.627Z,96.81
2023-04-16T04:08:41.642Z,97.42
2023-04-16T04:09:41.684Z,97.12
2023-04-16T04:10:41.651Z,97.28
2023-04-16T04:11:41.632Z,97.32
2023-04-16T04:12:41.617Z,97.12
2023-04-16T04:13:41.598Z,97.32
2023-04-16T04:14:41.614Z,97.73
2023-04-16T04:15:41.650Z,98.04
2023-04-16T04:16:41.735Z,97.94
2023-04-16T04:17:41.623Z,97.94
2023-04-16T04:18:43.315Z,97.42
2023-04-16T04:19:47.065Z,97.94
2023-04-16T04:20:43.636Z,97.63
2023-04-16T04:21:41.623Z,97.53
2023-04-16T04:22:41.590Z,97.42
2023-04-16T04:23:41.586Z,97.53
2023-04-16T04:24:41.545Z,98.35
2023-04-16T04:25:41.569Z,98.55
2023-04-16T04:26:41.601Z,98.14
2023-04-16T04:27:41.549Z,98.45
2023-04-16T04:28:41.548Z,98.55
2023-04-16T04:29:41.539Z,98.35
2023-04-16T04:30:41.527Z,98.55
2023-04-16T04:31:41.609Z,98.25
2023-04-16T04:32:41.555Z,98.71
2023-04-16T04:33:41.508Z,98.25
2023-04-16T04:34:41.583Z,98.55
2023-04-16T04:35:41.511Z,98.76
2023-04-16T04:36:41.568Z,98.66
2023-04-16T04:37:41.554Z,98.35
2023-04-16T04:38:41.515Z,98.66
2023-04-16T04:39:41.511Z,98.35
2023-04-16T04:40:41.482Z,98.86
2023-04-16T04:41:41.476Z,98.66
2023-04-16T04:42:41.512Z,98.76
2023-04-16T04:43:41.466Z,98.25
2023-04-16T04:44:41.466Z,98.04
2023-04-16T04:45:41.477Z,98.61
2023-04-16T04:46:41.481Z,98.76
2023-04-16T04:47:41.513Z,98.55
2023-04-16T04:48:41.479Z,98.45
2023-04-16T04:49:41.440Z,98.35
2023-04-16T04:50:41.438Z,98.35
2023-04-16T04:51:41.421Z,98.35
2023-04-16T04:52:41.426Z,98.76
2023-04-16T04:53:41.495Z,98.35
2023-04-16T04:54:41.425Z,98.04
2023-04-16T04:55:41.434Z,98.76
2023-04-16T04:56:41.413Z,98.14
2023-04-16T04:57:41.413Z,97.63
2023-04-16T04:58:41.466Z,97.53
2023-04-16T04:59:41.434Z,97.38
2023-04-16T05:00:41.366Z,97.73
2023-04-16T05:01:41.499Z,97.58
2023-04-16T05:02:41.499Z,97.53
2023-04-16T05:03:41.586Z,97.69
2023-04-16T05:04:41.430Z,97.63
2023-04-16T05:05:41.369Z,97.53
2023-04-16T05:06:41.360Z,97.48
2023-04-16T05:07:41.387Z,97.73
2023-04-16T05:08:41.411Z,97.53
2023-04-16T05:09:41.364Z,97.48
2023-04-16T05:10:41.340Z,97.53
2023-04-16T05:11:41.346Z,97.58
2023-04-16T05:12:41.392Z,97.63
2023-04-16T05:13:41.324Z,97.63
2023-04-16T05:14:41.380Z,97.53
2023-04-16T05:15:41.348Z,97.73
2023-04-16T05:16:41.379Z,97.69
2023-04-16T05:17:41.345Z,98.55
2023-04-16T05:18:41.345Z,97.73
2023-04-16T05:19:41.329Z,97.63
2023-04-16T05:20:41.297Z,97.58
2023-04-16T05:21:41.386Z,97.48
2023-04-16T05:22:41.268Z,97.69
2023-04-16T05:23:41.324Z,98.45
2023-04-16T05:24:41.309Z,97.79
2023-04-16T05:25:41.316Z,98.04
2023-04-16T05:26:41.287Z,98.55
2023-04-16T05:27:41.283Z,98.25
2023-04-16T05:28:41.293Z,98.76
2023-04-16T05:29:41.275Z,98.45
2023-04-16T05:30:41.318Z,98.66
2023-04-16T05:31:41.268Z,98.35
2023-04-16T05:32:41.356Z,98.55
2023-04-16T05:33:41.227Z,98.51
2023-04-16T05:34:41.226Z,98.25
2023-04-16T05:35:41.239Z,98.35
2023-04-16T05:36:41.246Z,98.71
2023-04-16T05:37:41.234Z,98.66
2023-04-16T05:38:41.206Z,98.25
2023-04-16T05:39:41.193Z,98.76
2023-04-16T05:40:41.188Z,98.86
2023-04-16T05:41:41.199Z,98.66
2023-04-16T05:42:41.231Z,98.76
2023-04-16T05:43:41.199Z,97.89
2023-04-16T05:44:41.178Z,98.25
2023-04-16T05:45:41.941Z,98.04
2023-04-16T05:46:41.256Z,97.79
2023-04-16T05:47:41.258Z,97.48
2023-04-16T05:48:41.190Z,97.53
2023-04-16T05:49:41.179Z,97.53
2023-04-16T05:50:41.168Z,97.63
2023-04-16T05:51:41.174Z,97.53
2023-04-16T05:52:41.203Z,97.63
2023-04-16T05:53:41.152Z,97.73
2023-04-16T05:54:41.145Z,97.79
2023-04-16T05:55:41.149Z,97.28
2023-04-16T05:56:41.135Z,97.63
2023-04-16T05:57:41.145Z,97.63
2023-04-16T05:58:41.179Z,97.73
2023-04-16T05:59:41.119Z,98.35
2023-04-16T06:00:41.110Z,97.89
2023-04-16T06:01:41.105Z,97.58
2023-04-16T06:02:41.407Z,97.73
2023-04-16T06:03:41.177Z,97.63
2023-04-16T06:04:41.151Z,97.53
2023-04-16T06:05:41.198Z,97.63
2023-04-16T06:06:41.079Z,97.69
2023-04-16T06:07:42.087Z,97.73
2023-04-16T06:08:41.118Z,98.45
2023-04-16T06:09:41.064Z,98.55
2023-04-16T06:10:41.122Z,97.99
2023-04-16T06:11:41.057Z,97.69
2023-04-16T06:12:41.068Z,98.66
2023-04-16T06:13:41.047Z,98.66
2023-04-16T06:14:41.064Z,98.25
2023-04-16T06:15:41.065Z,98.66
2023-04-16T06:16:41.034Z,98.76
2023-04-16T06:17:41.129Z,98.35
2023-04-16T06:18:41.051Z,98.86
2023-04-16T06:19:41.052Z,98.41
2023-04-16T06:20:41.032Z,98.45
2023-04-16T06:21:41.008Z,98.61
2023-04-16T06:22:41.028Z,98.66
2023-04-16T06:23:40.998Z,98.30
2023-04-16T06:24:41.026Z,98.55
2023-04-16T06:25:41.044Z,98.71
2023-04-16T06:26:40.992Z,98.10
2023-04-16T06:27:41.002Z,98.96
2023-04-16T06:28:40.966Z,98.82
2023-04-16T06:29:41.873Z,98.25
2023-04-16T06:30:43.375Z,98.55
2023-04-16T06:31:41.004Z,98.55
2023-04-16T06:32:41.050Z,98.45
2023-04-16T06:33:40.950Z,98.71
2023-04-16T06:34:40.950Z,98.76
2023-04-16T06:35:41.003Z,98.55
2023-04-16T06:36:40.952Z,98.71
2023-04-16T06:37:40.934Z,97.89
2023-04-16T06:38:40.924Z,98.30
2023-04-16T06:39:40.955Z,98.30
2023-04-16T06:40:40.948Z,98.30
2023-04-16T06:41:40.928Z,98.71
2023-04-16T06:42:41.448Z,98.51
2023-04-16T06:43:40.902Z,97.89
2023-04-16T06:44:40.897Z,97.58
2023-04-16T06:45:40.924Z,97.89
2023-04-16T06:46:40.947Z,97.48
2023-04-16T06:47:40.961Z,97.79
2023-04-16T06:48:40.887Z,97.07
2023-04-16T06:49:40.891Z,96.97
2023-04-16T06:50:40.874Z,96.92
2023-04-16T06:51:40.860Z,96.56
2023-04-16T06:52:40.894Z,96.97
2023-04-16T06:53:40.875Z,96.51
2023-04-16T06:54:40.858Z,96.41
2023-04-16T06:55:40.854Z,96.41
2023-04-16T06:56:40.858Z,96.10
2023-04-16T06:57:40.886Z,96.20
2023-04-16T06:58:40.856Z,96.15
2023-04-16T06:59:40.840Z,96.72
2023-04-16T07:00:40.877Z,96.72
2023-04-16T07:01:40.817Z,96.00
2023-04-16T07:02:40.956Z,96.82
2023-04-16T07:03:41.021Z,96.82
2023-04-16T07:04:40.815Z,96.20
2023-04-16T07:05:40.814Z,96.10
2023-04-16T07:06:40.813Z,96.20
2023-04-16T07:07:40.776Z,96.72
2023-04-16T07:08:40.832Z,96.20
2023-04-16T07:09:40.795Z,96.20
2023-04-16T07:10:40.792Z,96.20
2023-04-16T07:11:40.817Z,96.10
2023-04-16T07:12:40.779Z,96.82
2023-04-16T07:13:40.795Z,96.41
2023-04-16T07:14:40.853Z,96.41
2023-04-16T07:15:40.764Z,96.37
2023-04-16T07:16:40.818Z,96.51
2023-04-16T07:17:40.772Z,96.67
2023-04-16T07:18:40.782Z,96.57
2023-04-16T07:19:40.777Z,96.10
2023-04-16T07:20:40.758Z,96.16
2023-04-16T07:21:40.724Z,96.51
2023-04-16T07:22:40.725Z,96.98
2023-04-16T07:23:40.801Z,96.57
2023-04-16T07:24:40.735Z,95.95
2023-04-16T07:25:41.154Z,96.51
2023-04-16T07:26:40.702Z,96.37
2023-04-16T07:27:40.715Z,96.67
2023-04-16T07:28:40.708Z,96.57
2023-04-16T07:29:40.701Z,96.16
2023-04-16T07:30:41.688Z,96.41
2023-04-16T07:31:40.747Z,96.41
2023-04-16T07:32:40.716Z,96.00
2023-04-16T07:33:40.677Z,95.28
2023-04-16T07:34:40.883Z,95.69
2023-04-16T07:35:40.706Z,96.10
2023-04-16T07:36:40.713Z,96.20
2023-04-16T07:37:40.781Z,96.67
2023-04-16T07:38:40.650Z,96.41
2023-04-16T07:39:40.740Z,96.20
2023-04-16T07:40:40.660Z,96.41
2023-04-16T07:41:40.626Z,95.79
2023-04-16T07:42:40.623Z,95.94
2023-04-16T07:43:40.645Z,96.10
2023-04-16T07:44:40.633Z,96.72
2023-04-16T07:45:41.408Z,95.94
2023-04-16T07:46:46.839Z,95.18
2023-04-16T07:47:42.623Z,95.02
2023-04-16T07:48:40.588Z,95.23
2023-04-16T07:49:40.605Z,95.53
2023-04-16T07:50:40.595Z,95.02
2023-04-16T07:51:40.609Z,95.32
2023-04-16T07:52:40.575Z,95.43
2023-04-16T07:53:40.617Z,95.43
2023-04-16T07:54:40.604Z,95.23
2023-04-16T07:55:40.573Z,95.53
2023-04-16T07:56:40.596Z,96.15
2023-04-16T07:57:40.600Z,95.53
2023-04-16T07:58:40.594Z,95.84
2023-04-16T07:59:40.574Z,95.43
2023-04-16T08:00:40.549Z,95.84
2023-04-16T08:01:40.557Z,95.28
2023-04-16T08:02:40.656Z,95.64
2023-04-16T08:03:40.739Z,95.59
2023-04-16T08:04:40.691Z,95.12
2023-04-16T08:05:40.539Z,95.79
2023-04-16T08:06:40.525Z,95.59
2023-04-16T08:07:40.562Z,95.69
2023-04-16T08:08:40.529Z,95.28
2023-04-16T08:09:40.511Z,95.39
2023-04-16T08:10:40.521Z,95.90
2023-04-16T08:11:40.531Z,95.49
2023-04-16T08:12:40.533Z,95.39
2023-04-16T08:13:40.521Z,94.98
2023-04-16T08:14:40.531Z,95.28
2023-04-16T08:15:40.484Z,95.07
2023-04-16T08:16:40.489Z,95.23
2023-04-16T08:17:40.602Z,95.18
2023-04-16T08:18:40.533Z,95.69
2023-04-16T08:19:40.485Z,95.07
2023-04-16T08:20:40.504Z,96.00
2023-04-16T08:21:40.471Z,96.00
2023-04-16T08:22:40.455Z,96.41
2023-04-16T08:23:40.502Z,96.20
2023-04-16T08:24:40.484Z,95.12
2023-04-16T08:25:40.461Z,95.43
2023-04-16T08:26:40.436Z,95.39
2023-04-16T08:27:40.459Z,95.53
2023-04-16T08:28:40.475Z,95.23
2023-04-16T08:29:40.441Z,95.32
2023-04-16T08:30:40.453Z,95.39
2023-04-16T08:31:40.439Z,95.53
2023-04-16T08:32:40.431Z,95.18
2023-04-16T08:33:40.440Z,95.53
2023-04-16T08:34:40.439Z,94.98
2023-04-16T08:35:40.429Z,95.49
2023-04-16T08:36:40.392Z,96.04
2023-04-16T08:37:40.400Z,96.10
2023-04-16T08:38:40.376Z,96.25
2023-04-16T08:39:41.446Z,96.25
2023-04-16T08:40:40.390Z,96.04
2023-04-16T08:41:40.387Z,96.04
2023-04-16T08:42:40.378Z,96.56
2023-04-16T08:43:40.387Z,96.70
2023-04-16T08:44:40.399Z,97.02
2023-04-16T08:45:40.359Z,97.02
2023-04-16T08:46:40.476Z,97.17
2023-04-16T08:47:40.381Z,97.28
2023-04-16T08:48:40.350Z,97.58
2023-04-16T08:49:40.355Z,97.07
2023-04-16T08:50:40.380Z,97.79
2023-04-16T08:51:40.323Z,97.94
2023-04-16T08:52:40.333Z,97.99
2023-04-16T08:53:40.323Z,97.63
2023-04-16T08:54:40.355Z,97.53
2023-04-16T08:55:40.367Z,97.63
2023-04-16T08:56:41.647Z,98.35
2023-04-16T08:57:40.393Z,97.63
2023-04-16T08:58:40.311Z,98.04
2023-04-16T08:59:40.312Z,98.45
2023-04-16T09:00:40.351Z,97.94
2023-04-16T09:01:40.353Z,97.73
2023-04-16T09:02:40.566Z,97.73
2023-04-16T09:03:40.418Z,97.83
2023-04-16T09:04:41.450Z,97.48
2023-04-16T09:05:40.329Z,97.73
2023-04-16T09:06:40.321Z,97.48
2023-04-16T09:07:40.294Z,97.79
2023-04-16T09:08:40.339Z,98.35
2023-04-16T09:09:40.254Z,97.73
2023-04-16T09:10:40.315Z,98.45
2023-04-16T09:11:40.247Z,98.66
2023-04-16T09:12:40.224Z,98.45
2023-04-16T09:13:40.234Z,98.14
2023-04-16T09:14:40.276Z,98.30
2023-04-16T09:15:40.202Z,98.55
2023-04-16T09:16:40.449Z,98.35
2023-04-16T09:17:40.253Z,98.55
2023-04-16T09:18:40.215Z,98.76
2023-04-16T09:19:40.230Z,98.76
2023-04-16T09:20:40.208Z,98.35
2023-04-16T09:21:40.210Z,97.73
2023-04-16T09:22:40.193Z,97.73
2023-04-16T09:23:40.229Z,97.79
2023-04-16T09:24:40.184Z,97.79
2023-04-16T09:25:40.194Z,98.25
2023-04-16T09:26:40.221Z,98.14
2023-04-16T09:27:40.178Z,98.35
2023-04-16T09:28:40.160Z,97.53
2023-04-16T09:29:40.161Z,97.69
2023-04-16T09:30:40.193Z,97.94
2023-04-16T09:31:40.189Z,97.69
2023-04-16T09:32:40.196Z,97.99
2023-04-16T09:33:40.180Z,97.02
2023-04-16T09:34:40.149Z,97.02
2023-04-16T09:35:40.172Z,97.94
2023-04-16T09:36:40.136Z,97.83
2023-04-16T09:37:40.139Z,97.42
2023-04-16T09:38:40.136Z,97.27
2023-04-16T09:39:40.127Z,97.32
2023-04-16T09:40:40.125Z,97.47
2023-04-16T09:41:40.104Z,97.42
2023-04-16T09:42:40.102Z,98.14
2023-04-16T09:43:40.113Z,98.45
2023-04-16T09:44:40.134Z,97.42
2023-04-16T09:45:40.146Z,97.32
2023-04-16T09:46:40.073Z,97.42
2023-04-16T09:47:40.116Z,97.32
2023-04-16T09:48:40.111Z,97.37
2023-04-16T09:49:40.054Z,97.94
2023-04-16T09:50:40.096Z,97.99
2023-04-16T09:51:40.076Z,97.83
2023-04-16T09:52:40.059Z,97.73
2023-04-16T09:53:40.045Z,97.94
2023-04-16T09:54:40.115Z,97.53
2023-04-16T09:55:40.053Z,97.73
2023-04-16T09:56:40.079Z,98.04
2023-04-16T09:57:40.019Z,97.73
2023-04-16T09:58:40.039Z,98.45
2023-04-16T09:59:40.036Z,97.47
2023-04-16T10:00:43.524Z,97.16
2023-04-16T10:01:40.185Z,96.55
2023-04-16T10:02:40.204Z,97.16
2023-04-16T10:03:40.237Z,97.32
2023-04-16T10:04:40.050Z,97.06
2023-04-16T10:05:40.020Z,96.95
2023-04-16T10:06:40.060Z,96.95
2023-04-16T10:07:39.994Z,96.91
2023-04-16T10:08:39.965Z,97.94
2023-04-16T10:09:39.980Z,97.27
2023-04-16T10:10:39.964Z,97.32
2023-04-16T10:11:40.059Z,97.99
2023-04-16T10:12:39.972Z,97.78
2023-04-16T10:13:39.968Z,97.88
2023-04-16T10:14:39.972Z,97.16
2023-04-16T10:15:39.974Z,96.95
2023-04-16T10:16:40.101Z,97.32
2023-04-16T10:17:39.998Z,96.50
2023-04-16T10:18:39.940Z,96.34
2023-04-16T10:19:39.952Z,96.81
2023-04-16T10:20:39.942Z,96.81
2023-04-16T10:21:39.971Z,96.60
2023-04-16T10:22:39.946Z,96.60
2023-04-16T10:23:39.950Z,96.70
2023-04-16T10:24:39.897Z,97.12
2023-04-16T10:25:39.942Z,96.45
2023-04-16T10:26:39.924Z,96.56
2023-04-16T10:27:39.933Z,96.87
2023-04-16T10:28:39.998Z,96.92
2023-04-16T10:29:39.893Z,96.31
2023-04-16T10:30:39.970Z,95.39
2023-04-16T10:31:39.938Z,95.84
2023-04-16T10:32:40.048Z,96.00
2023-04-16T10:33:39.928Z,95.75
2023-04-16T10:34:39.871Z,95.18
2023-04-16T10:35:39.863Z,94.56
2023-04-16T10:36:39.875Z,94.56
2023-04-16T10:37:39.888Z,94.56
2023-04-16T10:38:39.879Z,93.13
2023-04-16T10:39:39.822Z,93.74
2023-04-16T10:40:39.844Z,93.95
2023-04-16T10:41:39.864Z,93.74
2023-04-16T10:42:39.824Z,92.72
2023-04-16T10:43:39.895Z,93.08
2023-04-16T10:44:41.409Z,93.19
2023-04-16T10:45:39.840Z,93.29
2023-04-16T10:46:39.879Z,94.05
2023-04-16T10:47:39.853Z,93.29
2023-04-16T10:48:49.783Z,92.57
2023-04-16T10:49:41.813Z,92.78
2023-04-16T10:50:39.826Z,92.78
2023-04-16T10:51:39.788Z,92.57
2023-04-16T10:52:39.820Z,92.47
2023-04-16T10:53:39.870Z,93.04
2023-04-16T10:54:39.852Z,92.27
2023-04-16T10:55:39.766Z,90.83
2023-04-16T10:56:39.783Z,91.44
2023-04-16T10:57:39.762Z,91.96
2023-04-16T10:58:39.799Z,92.43
2023-04-16T10:59:39.785Z,92.98
2023-04-16T11:00:39.755Z,93.15
2023-04-16T11:01:39.961Z,93.04
2023-04-16T11:02:39.925Z,92.22
2023-04-16T11:03:39.775Z,92.63
2023-04-16T11:04:39.752Z,92.74
2023-04-16T11:05:39.719Z,92.22
2023-04-16T11:06:39.730Z,91.82
2023-04-16T11:07:39.741Z,92.22
2023-04-16T11:08:53.240Z,92.22
2023-04-16T11:09:41.734Z,92.83
2023-04-16T11:10:39.747Z,92.22
2023-04-16T11:11:39.733Z,92.69
2023-04-16T11:12:39.715Z,92.08
2023-04-16T11:13:39.721Z,91.97
2023-04-16T11:14:39.670Z,91.40
2023-04-16T11:15:39.719Z,91.82
2023-04-16T11:16:39.680Z,91.09
2023-04-16T11:17:39.719Z,90.28
2023-04-16T11:18:51.623Z,89.76
2023-04-16T11:19:40.651Z,89.83
2023-04-16T11:20:39.671Z,91.40
2023-04-16T11:21:39.669Z,91.36
2023-04-16T11:22:39.655Z,91.36
2023-04-16T11:23:39.648Z,90.23
2023-04-16T11:24:39.638Z,90.23
2023-04-16T11:25:39.646Z,90.64
2023-04-16T11:26:39.687Z,90.75
2023-04-16T11:27:39.623Z,89.72
2023-04-16T11:28:39.672Z,90.03
2023-04-16T11:29:39.612Z,90.50
2023-04-16T11:30:39.634Z,90.19
2023-04-16T11:31:39.651Z,88.86
2023-04-16T11:32:39.627Z,89.17
2023-04-16T11:33:39.654Z,88.56
2023-04-16T11:34:39.587Z,89.78
2023-04-16T11:35:39.579Z,89.17
2023-04-16T11:36:39.575Z,89.53
2023-04-16T11:37:39.565Z,89.12
2023-04-16T11:38:39.634Z,88.51
2023-04-16T11:39:39.540Z,88.10
2023-04-16T11:40:39.541Z,89.50
2023-04-16T11:41:39.526Z,86.77
2023-04-16T11:42:39.544Z,87.29
2023-04-16T11:43:39.667Z,87.59
2023-04-16T11:44:39.520Z,88.82
2023-04-16T11:45:39.521Z,89.03
2023-04-16T11:46:39.614Z,87.79
2023-04-16T11:47:39.577Z,87.96
2023-04-16T11:48:39.544Z,87.76
2023-04-16T11:49:39.524Z,87.04
2023-04-16T11:50:39.525Z,87.04
2023-04-16T11:51:39.489Z,87.35
2023-04-16T11:52:39.483Z,87.96
2023-04-16T11:53:39.505Z,87.65
2023-04-16T11:54:39.492Z,87.76
2023-04-16T11:55:39.561Z,88.26
2023-04-16T11:56:39.492Z,87.65
2023-04-16T11:57:39.445Z,87.76
2023-04-16T11:58:43.348Z,87.45
2023-04-16T12:00:01.812Z,86.90
2023-04-16T12:00:40.469Z,88.33
2023-04-16T12:01:39.475Z,86.38
2023-04-16T12:02:39.531Z,86.35
2023-04-16T12:03:39.797Z,86.44
2023-04-16T12:04:39.570Z,86.30
2023-04-16T12:05:39.477Z,86.06
2023-04-16T12:06:39.410Z,86.06
2023-04-16T12:07:39.421Z,85.04
2023-04-16T12:08:39.493Z,84.63
2023-04-16T12:09:40.661Z,84.83
2023-04-16T12:10:40.427Z,83.92
2023-04-16T12:11:39.372Z,85.24
2023-04-16T12:12:39.352Z,83.61
2023-04-16T12:13:39.401Z,84.39
2023-04-16T12:14:39.356Z,84.22
2023-04-16T12:15:39.326Z,84.22
2023-04-16T12:16:39.457Z,84.69
2023-04-16T12:17:39.398Z,85.10
2023-04-16T12:18:39.322Z,85.10
2023-04-16T12:19:39.317Z,85.21
2023-04-16T12:20:40.314Z,82.79
2023-04-16T12:21:40.368Z,84.22
2023-04-16T12:22:39.303Z,85.30
2023-04-16T12:23:39.321Z,85.41
2023-04-16T12:24:39.282Z,84.69
2023-04-16T12:25:39.322Z,85.10
2023-04-16T12:26:39.282Z,85.10
2023-04-16T12:27:39.285Z,85.06
2023-04-16T12:28:39.346Z,84.59
2023-04-16T12:29:39.291Z,82.75
2023-04-16T12:30:39.263Z,83.87
2023-04-16T12:31:39.236Z,83.94
2023-04-16T12:32:39.285Z,83.39
2023-04-16T12:33:39.283Z,81.56
2023-04-16T12:34:48.607Z,80.54
2023-04-16T12:35:40.223Z,80.57
2023-04-16T12:36:39.211Z,81.70
2023-04-16T12:37:39.210Z,82.00
2023-04-16T12:38:39.258Z,82.35
2023-04-16T12:39:39.268Z,81.90
2023-04-16T12:40:39.213Z,82.86
2023-04-16T12:41:39.202Z,84.74
2023-04-16T12:42:39.210Z,83.65
2023-04-16T12:43:39.238Z,84.98
2023-04-16T12:44:39.167Z,84.47
2023-04-16T12:45:39.187Z,85.28
2023-04-16T12:46:39.196Z,85.22
2023-04-16T12:47:39.161Z,85.42
2023-04-16T12:48:39.223Z,85.12
2023-04-16T12:49:39.150Z,85.16
2023-04-16T12:50:39.125Z,85.12
2023-04-16T12:51:40.144Z,85.47
2023-04-16T12:52:39.152Z,85.42